Terminal Aerodrome Forecast
Issued by NWS

Home | Current Version | Previous Version | Text Only | Print | Product List | Glossary On
Versions: 1 2 3 4 5 6 7 8 9 10 11 12 13 14
823
FTUS46 KMTR 240928 AAA
TAFSTS
TAF AMD
KSTS 240928Z 2409/2506 13003KT P6SM -RA BKN025 OVC050
      TEMPO 2409/2412 4SM RA OVC020
     FM241200 15010G18KT 4SM RA OVC025
     FM242000 20008KT 6SM -RA OVC030
     FM250000 25006KT P6SM VCSH SCT030 BKN070=

USA.gov is the U.S. government's official web portal to all federal, state and local government web resources and services.